createdAt,value
2022-09-27T00:00:17.734Z,58.13
2022-09-27T00:02:50.696Z,57.67
2022-09-27T00:05:24.166Z,57.68
2022-09-27T00:07:57.566Z,57.92
2022-09-27T00:10:32.506Z,57.66
2022-09-27T00:13:05.178Z,57.51
2022-09-27T00:15:37.840Z,57.52
2022-09-27T00:18:10.698Z,57.50
2022-09-27T00:20:43.350Z,57.18
2022-09-27T00:23:16.134Z,57.39
2022-09-27T00:26:00.275Z,57.25
2022-09-27T00:28:33.751Z,57.51
2022-09-27T00:31:18.399Z,57.33
2022-09-27T00:33:52.463Z,57.48
2022-09-27T00:36:25.827Z,56.96
2022-09-27T00:38:59.996Z,57.32
2022-09-27T00:41:36.114Z,57.36
2022-09-27T00:44:42.843Z,57.30
2022-09-27T00:47:22.613Z,57.55
2022-09-27T00:50:00.051Z,57.34
2022-09-27T00:52:38.087Z,57.40
2022-09-27T00:55:14.169Z,57.28
2022-09-27T00:57:49.701Z,57.56
2022-09-27T01:00:23.559Z,57.79
2022-09-27T01:02:58.145Z,57.91
2022-09-27T01:05:31.409Z,57.55
2022-09-27T01:08:04.172Z,57.26
2022-09-27T01:10:45.957Z,57.57
2022-09-27T01:13:26.279Z,56.89
2022-09-27T01:16:07.301Z,57.33
2022-09-27T01:18:52.242Z,57.28
2022-09-27T01:21:45.998Z,57.47
2022-09-27T01:24:48.713Z,57.75
2022-09-27T01:27:41.853Z,57.72
2022-09-27T01:30:24.497Z,57.86
2022-09-27T01:33:18.863Z,58.05
2022-09-27T01:36:07.268Z,57.70
2022-09-27T01:38:51.966Z,57.74
2022-09-27T01:41:33.816Z,57.98
2022-09-27T01:44:40.236Z,57.80
2022-09-27T01:47:22.821Z,57.91
2022-09-27T01:50:21.741Z,57.93
2022-09-27T01:52:59.969Z,58.03
2022-09-27T01:55:39.181Z,57.73
2022-09-27T01:58:44.641Z,57.50
2022-09-27T02:01:22.719Z,58.01
2022-09-27T02:04:01.705Z,57.40
2022-09-27T02:06:59.418Z,57.70
2022-09-27T02:09:40.087Z,57.35
2022-09-27T02:12:31.885Z,57.63
2022-09-27T02:15:08.288Z,57.68
2022-09-27T02:17:45.219Z,57.75
2022-09-27T02:20:30.988Z,57.80
2022-09-27T02:23:15.745Z,58.15
2022-09-27T02:25:57.046Z,57.88
2022-09-27T02:28:34.545Z,57.87
2022-09-27T02:31:07.492Z,57.53
2022-09-27T02:33:46.524Z,57.89
2022-09-27T02:36:21.313Z,57.75
2022-09-27T02:38:54.124Z,57.91
2022-09-27T02:41:28.110Z,57.83
2022-09-27T02:44:05.168Z,57.44
2022-09-27T02:46:56.325Z,57.56
2022-09-27T02:49:45.878Z,57.67
2022-09-27T02:52:46.756Z,57.63
2022-09-27T02:55:25.566Z,57.46
2022-09-27T02:58:16.696Z,57.91
2022-09-27T03:01:13.266Z,57.72
2022-09-27T03:03:55.120Z,57.81
2022-09-27T03:06:30.061Z,57.88
2022-09-27T03:09:04.226Z,58.13
2022-09-27T03:11:36.972Z,57.89
2022-09-27T03:14:09.764Z,58.05
2022-09-27T03:16:48.782Z,57.71
2022-09-27T03:19:59.677Z,57.89
2022-09-27T03:22:52.626Z,57.67
2022-09-27T03:25:26.878Z,58.12
2022-09-27T03:27:59.727Z,58.39
2022-09-27T03:30:32.562Z,57.92
2022-09-27T03:33:05.550Z,57.73
2022-09-27T03:35:50.186Z,58.02
2022-09-27T03:38:22.872Z,57.93
2022-09-27T03:40:57.111Z,57.90
2022-09-27T03:43:29.978Z,57.89
2022-09-27T03:46:07.182Z,57.97
2022-09-27T03:48:39.970Z,57.87
2022-09-27T03:51:13.110Z,57.98
2022-09-27T03:53:45.826Z,57.91
2022-09-27T03:56:20.140Z,58.00
2022-09-27T03:58:52.876Z,58.45
2022-09-27T04:01:26.121Z,58.18
2022-09-27T04:04:07.578Z,58.10
2022-09-27T04:06:43.102Z,57.89
2022-09-27T04:09:16.218Z,57.82
2022-09-27T04:12:06.821Z,57.72
2022-09-27T04:14:39.473Z,57.98
2022-09-27T04:17:32.067Z,57.76
2022-09-27T04:20:23.461Z,58.27
2022-09-27T04:22:56.514Z,58.15
2022-09-27T04:25:29.270Z,58.17
2022-09-27T04:28:06.699Z,57.82
2022-09-27T04:30:41.349Z,57.78
2022-09-27T04:33:40.582Z,57.82
2022-09-27T04:36:26.406Z,57.75
2022-09-27T04:39:13.686Z,58.07
2022-09-27T04:41:48.709Z,58.18
2022-09-27T04:44:22.720Z,58.20
2022-09-27T04:46:56.546Z,58.38
2022-09-27T04:49:29.218Z,58.31
2022-09-27T04:52:02.552Z,58.40
2022-09-27T04:54:35.219Z,58.15
2022-09-27T04:57:18.239Z,58.29
2022-09-27T04:59:52.502Z,58.39
2022-09-27T05:02:27.447Z,58.17
2022-09-27T05:05:20.428Z,58.39
2022-09-27T05:07:53.419Z,58.59
2022-09-27T05:10:38.103Z,58.79
2022-09-27T05:13:11.268Z,58.55
2022-09-27T05:15:45.444Z,58.53
2022-09-27T05:18:41.898Z,58.77
2022-09-27T05:21:46.871Z,58.64
2022-09-27T05:24:20.190Z,58.60
2022-09-27T05:26:53.480Z,58.83
2022-09-27T05:29:29.388Z,58.56
2022-09-27T05:32:17.533Z,58.43
2022-09-27T05:34:53.645Z,58.67
2022-09-27T05:37:26.451Z,58.66
2022-09-27T05:40:16.999Z,58.70
2022-09-27T05:42:56.653Z,58.82
2022-09-27T05:45:29.279Z,58.70
2022-09-27T05:48:12.537Z,58.60
2022-09-27T05:50:51.501Z,58.69
2022-09-27T05:53:24.247Z,58.95
2022-09-27T05:55:57.014Z,58.98
2022-09-27T05:58:38.529Z,59.08
2022-09-27T06:01:20.494Z,58.90
2022-09-27T06:04:32.839Z,59.00
2022-09-27T06:07:30.780Z,58.79
2022-09-27T06:10:03.743Z,59.02
2022-09-27T06:12:36.584Z,58.81
2022-09-27T06:15:14.625Z,58.62
2022-09-27T06:17:50.564Z,58.64
2022-09-27T06:20:26.835Z,58.38
2022-09-27T06:23:05.878Z,58.44
2022-09-27T06:25:39.410Z,58.52
2022-09-27T06:28:24.847Z,58.18
2022-09-27T06:31:01.648Z,58.57
2022-09-27T06:33:58.074Z,58.25
2022-09-27T06:36:33.340Z,58.56
2022-09-27T06:39:06.407Z,58.11
2022-09-27T06:41:48.155Z,58.39
2022-09-27T06:44:35.938Z,58.48
2022-09-27T06:47:43.789Z,58.32
2022-09-27T06:50:30.372Z,58.85
2022-09-27T06:53:04.390Z,58.46
2022-09-27T06:55:37.577Z,58.61
2022-09-27T06:58:29.672Z,58.62
2022-09-27T07:01:35.683Z,58.73
2022-09-27T07:04:31.713Z,58.52
2022-09-27T07:07:10.815Z,58.81
2022-09-27T07:09:47.368Z,58.52
2022-09-27T07:12:24.425Z,58.47
2022-09-27T07:14:57.240Z,58.44
2022-09-27T07:17:30.042Z,58.61
2022-09-27T07:20:03.798Z,58.31
2022-09-27T07:22:40.609Z,58.37
2022-09-27T07:25:15.965Z,58.14
2022-09-27T07:27:50.083Z,58.64
2022-09-27T07:30:23.423Z,58.38
2022-09-27T07:32:59.220Z,58.44
2022-09-27T07:35:33.353Z,58.42
2022-09-27T07:38:08.299Z,58.38
2022-09-27T07:40:43.035Z,58.66
2022-09-27T07:43:16.270Z,58.52
2022-09-27T07:45:49.682Z,58.19
2022-09-27T07:48:39.360Z,58.23
2022-09-27T07:51:19.862Z,58.30
2022-09-27T07:53:58.971Z,58.06
2022-09-27T07:56:52.896Z,58.43
2022-09-27T07:59:27.504Z,58.37
2022-09-27T08:02:00.573Z,58.84
2022-09-27T08:04:33.376Z,58.16
2022-09-27T08:07:06.360Z,58.53
2022-09-27T08:09:39.307Z,58.77
2022-09-27T08:12:13.453Z,58.80
2022-09-27T08:14:48.441Z,58.54
2022-09-27T08:17:21.658Z,59.02
2022-09-27T08:20:33.267Z,59.30
2022-09-27T08:23:24.700Z,59.30
2022-09-27T08:26:10.741Z,59.13
2022-09-27T08:29:03.589Z,59.43
2022-09-27T08:31:39.540Z,59.15
2022-09-27T08:34:13.420Z,59.24
2022-09-27T08:36:46.122Z,59.28
2022-09-27T08:39:19.149Z,59.51
2022-09-27T08:42:14.421Z,59.55
2022-09-27T08:44:59.735Z,59.88
2022-09-27T08:47:39.571Z,59.56
2022-09-27T08:50:23.904Z,59.08
2022-09-27T08:53:01.178Z,59.44
2022-09-27T08:55:38.473Z,59.33
2022-09-27T08:58:24.390Z,59.25
2022-09-27T09:01:02.429Z,59.08
2022-09-27T09:03:45.077Z,58.98
2022-09-27T09:06:23.466Z,58.47
2022-09-27T09:09:06.897Z,58.87
2022-09-27T09:12:10.279Z,58.58
2022-09-27T09:15:04.934Z,58.85
2022-09-27T09:17:53.749Z,58.73
2022-09-27T09:21:00.493Z,58.47
2022-09-27T09:23:55.257Z,58.72
2022-09-27T09:26:36.114Z,58.81
2022-09-27T09:29:25.727Z,59.17
2022-09-27T09:32:09.083Z,59.26
2022-09-27T09:34:48.044Z,60.00
2022-09-27T09:37:25.110Z,60.22
2022-09-27T09:40:08.142Z,60.23
2022-09-27T09:42:47.757Z,60.48
2022-09-27T09:45:25.525Z,60.40
2022-09-27T09:48:04.536Z,60.84
2022-09-27T09:50:44.068Z,61.07
2022-09-27T09:53:22.243Z,60.74
2022-09-27T09:56:01.685Z,60.63
2022-09-27T09:58:41.529Z,61.10
2022-09-27T10:01:22.053Z,61.10
2022-09-27T10:03:56.151Z,61.17
2022-09-27T10:06:32.141Z,60.84
2022-09-27T10:09:07.234Z,60.91
2022-09-27T10:11:48.121Z,61.14
2022-09-27T10:14:35.109Z,60.82
2022-09-27T10:17:15.587Z,61.43
2022-09-27T10:19:49.544Z,60.46
2022-09-27T10:22:29.152Z,61.05
2022-09-27T10:25:08.974Z,61.22
2022-09-27T10:27:51.392Z,61.24
2022-09-27T10:30:32.899Z,61.25
2022-09-27T10:33:18.991Z,61.09
2022-09-27T10:35:56.205Z,61.20
2022-09-27T10:38:37.164Z,61.31
2022-09-27T10:41:28.359Z,61.37
2022-09-27T10:44:24.846Z,60.36
2022-09-27T10:47:09.359Z,60.43
2022-09-27T10:50:45.939Z,59.96
2022-09-27T10:53:27.397Z,59.67
2022-09-27T10:56:08.385Z,59.10
2022-09-27T10:58:41.702Z,58.51
2022-09-27T11:01:19.690Z,58.77
2022-09-27T11:04:30.607Z,58.14
2022-09-27T11:07:18.453Z,57.50
2022-09-27T11:10:03.043Z,57.38
2022-09-27T11:12:42.042Z,56.33
2022-09-27T11:15:20.950Z,56.21
2022-09-27T11:18:05.048Z,56.58
2022-09-27T11:20:43.551Z,57.12
2022-09-27T11:23:40.435Z,56.09
2022-09-27T11:26:30.821Z,56.32
2022-09-27T11:29:19.381Z,55.00
2022-09-27T11:32:20.493Z,55.24
2022-09-27T11:35:06.970Z,55.94
2022-09-27T11:37:49.087Z,55.99
2022-09-27T11:40:32.940Z,55.17
2022-09-27T11:43:19.846Z,55.64
2022-09-27T11:46:16.670Z,55.85
2022-09-27T11:49:11.118Z,55.40
2022-09-27T11:51:59.309Z,55.57
2022-09-27T11:54:47.096Z,55.99
2022-09-27T11:57:26.399Z,55.29
2022-09-27T12:00:13.890Z,56.40
2022-09-27T12:03:21.149Z,54.55
2022-09-27T12:06:08.651Z,53.93
2022-09-27T12:09:02.584Z,54.48
2022-09-27T12:11:40.737Z,54.47
2022-09-27T12:14:26.575Z,54.16
2022-09-27T12:17:05.948Z,54.49
2022-09-27T12:19:45.386Z,53.59
2022-09-27T12:22:47.046Z,53.82
2022-09-27T12:25:22.138Z,53.72
2022-09-27T12:28:10.994Z,53.88
2022-09-27T12:30:55.063Z,54.56
2022-09-27T12:33:40.636Z,54.94
2022-09-27T12:36:19.419Z,53.60
2022-09-27T12:38:57.356Z,53.01
2022-09-27T12:41:34.966Z,54.16
2022-09-27T12:44:23.308Z,54.06
2022-09-27T12:47:07.750Z,54.45
2022-09-27T12:49:54.671Z,53.22
2022-09-27T12:52:39.837Z,53.90
2022-09-27T12:55:24.590Z,53.55
2022-09-27T12:58:15.856Z,53.02
2022-09-27T13:00:59.161Z,52.95
2022-09-27T13:03:44.662Z,53.67
2022-09-27T13:06:35.255Z,52.76
2022-09-27T13:09:44.036Z,52.43
2022-09-27T13:12:20.597Z,53.79
2022-09-27T13:15:03.002Z,53.24
2022-09-27T13:17:53.351Z,52.94
2022-09-27T13:20:53.080Z,53.71
2022-09-27T13:23:54.975Z,53.32
2022-09-27T13:26:51.659Z,54.50
2022-09-27T13:29:34.268Z,53.75
2022-09-27T13:32:20.733Z,53.72
2022-09-27T13:35:20.728Z,54.05
2022-09-27T13:38:00.504Z,53.20
2022-09-27T13:40:44.457Z,53.45
2022-09-27T13:43:43.367Z,53.69
2022-09-27T13:46:53.375Z,54.15
2022-09-27T13:49:32.659Z,54.56
2022-09-27T13:52:21.831Z,53.78
2022-09-27T13:55:28.589Z,53.97
2022-09-27T13:58:03.685Z,53.77
2022-09-27T14:00:44.527Z,53.83
2022-09-27T14:03:25.158Z,53.24
2022-09-27T14:06:03.549Z,54.26
2022-09-27T14:08:46.792Z,54.25
2022-09-27T14:11:24.570Z,54.97
2022-09-27T14:13:58.822Z,55.50
2022-09-27T14:16:41.694Z,55.12
2022-09-27T14:19:17.739Z,55.11
2022-09-27T14:21:50.717Z,55.37
2022-09-27T14:24:47.225Z,55.23
2022-09-27T14:27:26.757Z,55.23
2022-09-27T14:30:15.600Z,55.34
2022-09-27T14:32:54.054Z,55.68
2022-09-27T14:35:53.662Z,55.68
2022-09-27T14:38:38.196Z,55.69
2022-09-27T14:41:19.385Z,55.68
2022-09-27T14:43:52.260Z,56.19
2022-09-27T14:46:28.205Z,56.16
2022-09-27T14:49:13.929Z,56.05
2022-09-27T14:51:52.477Z,56.09
2022-09-27T14:54:27.278Z,55.96
2022-09-27T14:57:00.742Z,55.73
2022-09-27T14:59:37.811Z,56.41
2022-09-27T15:02:18.885Z,56.78
2022-09-27T15:04:54.693Z,56.65
2022-09-27T15:07:28.458Z,56.63
2022-09-27T15:10:01.376Z,56.64
2022-09-27T15:12:35.600Z,56.47
2022-09-27T15:15:14.157Z,56.34
2022-09-27T15:17:47.861Z,56.40
2022-09-27T15:20:31.035Z,56.56
2022-09-27T15:23:07.641Z,56.55
2022-09-27T15:25:43.534Z,57.69
2022-09-27T15:28:19.486Z,57.10
2022-09-27T15:30:57.366Z,56.51
2022-09-27T15:33:32.943Z,56.83
2022-09-27T15:36:09.565Z,56.77
2022-09-27T15:38:47.686Z,57.09
2022-09-27T15:41:21.669Z,56.98
2022-09-27T15:43:54.605Z,56.76
2022-09-27T15:46:39.163Z,56.91
2022-09-27T15:49:33.702Z,56.80
2022-09-27T15:52:09.508Z,56.84
2022-09-27T15:54:42.248Z,57.14
2022-09-27T15:57:15.211Z,57.50
2022-09-27T15:59:48.131Z,57.66
2022-09-27T16:02:22.096Z,56.80
2022-09-27T16:04:54.894Z,57.20
2022-09-27T16:07:29.106Z,57.06
2022-09-27T16:10:01.961Z,57.63
2022-09-27T16:12:34.797Z,57.47
2022-09-27T16:15:08.747Z,57.30
2022-09-27T16:17:42.742Z,57.53
2022-09-27T16:20:19.779Z,57.46
2022-09-27T16:22:55.044Z,57.41
2022-09-27T16:25:28.903Z,57.38
2022-09-27T16:28:02.956Z,57.43
2022-09-27T16:30:35.916Z,57.56
2022-09-27T16:33:08.703Z,57.77
2022-09-27T16:35:42.330Z,57.95
2022-09-27T16:38:17.878Z,57.74
2022-09-27T16:40:53.524Z,57.49
2022-09-27T16:43:28.306Z,57.33
2022-09-27T16:46:11.783Z,57.44
2022-09-27T16:48:44.880Z,57.24
2022-09-27T16:51:36.847Z,58.51
2022-09-27T16:54:12.542Z,58.18
2022-09-27T16:56:52.169Z,57.65
2022-09-27T16:59:29.171Z,57.63
2022-09-27T17:02:02.113Z,57.97
2022-09-27T17:04:35.821Z,58.21
2022-09-27T17:07:09.109Z,58.31
2022-09-27T17:09:43.449Z,58.48
2022-09-27T17:12:16.822Z,58.71
2022-09-27T17:14:49.612Z,59.25
2022-09-27T17:17:22.816Z,59.17
2022-09-27T17:19:55.489Z,59.33
2022-09-27T17:22:28.400Z,58.72
2022-09-27T17:25:02.734Z,59.17
2022-09-27T17:27:35.875Z,59.34
2022-09-27T17:30:09.113Z,59.74
2022-09-27T17:32:42.133Z,59.35
2022-09-27T17:35:15.838Z,60.38
2022-09-27T17:37:50.682Z,60.47
2022-09-27T17:40:24.941Z,60.14
2022-09-27T17:42:58.383Z,60.53
2022-09-27T17:45:31.041Z,60.68
2022-09-27T17:48:23.705Z,60.25
2022-09-27T17:50:56.753Z,60.74
2022-09-27T17:53:32.982Z,60.52
2022-09-27T17:56:10.085Z,60.27
2022-09-27T17:58:47.580Z,60.33
2022-09-27T18:01:22.465Z,60.73
2022-09-27T18:03:57.574Z,60.58
2022-09-27T18:06:30.528Z,60.98
2022-09-27T18:09:03.255Z,61.47
2022-09-27T18:11:39.033Z,61.75
2022-09-27T18:14:12.465Z,61.86
2022-09-27T18:16:45.564Z,61.79
2022-09-27T18:19:18.581Z,62.00
2022-09-27T18:21:52.070Z,62.25
2022-09-27T18:24:26.267Z,62.34
2022-09-27T18:27:01.008Z,62.53
2022-09-27T18:29:34.058Z,62.20
2022-09-27T18:32:06.835Z,62.92
2022-09-27T18:34:40.305Z,63.15
2022-09-27T18:37:12.980Z,63.25
2022-09-27T18:39:46.272Z,63.24
2022-09-27T18:42:20.466Z,63.07
2022-09-27T18:44:53.645Z,63.09
2022-09-27T18:47:26.240Z,63.09
2022-09-27T18:49:59.226Z,63.19
2022-09-27T18:52:31.834Z,63.41
2022-09-27T18:55:04.967Z,63.41
2022-09-27T18:57:39.277Z,63.74
2022-09-27T19:00:13.168Z,63.93
2022-09-27T19:02:45.995Z,63.49
2022-09-27T19:05:18.777Z,63.64
2022-09-27T19:07:51.613Z,63.72
2022-09-27T19:10:24.363Z,63.48
2022-09-27T19:12:58.342Z,63.27
2022-09-27T19:15:31.084Z,63.11
2022-09-27T19:18:03.970Z,63.28
2022-09-27T19:20:37.312Z,63.41
2022-09-27T19:23:10.018Z,63.45
2022-09-27T19:25:42.933Z,63.73
2022-09-27T19:28:17.287Z,63.87
2022-09-27T19:30:50.236Z,63.79
2022-09-27T19:33:22.911Z,63.60
2022-09-27T19:36:01.090Z,63.77
2022-09-27T19:38:35.806Z,63.60
2022-09-27T19:41:10.598Z,64.25
2022-09-27T19:43:47.335Z,64.03
2022-09-27T19:46:22.589Z,64.17
2022-09-27T19:48:56.207Z,64.05
2022-09-27T19:51:29.090Z,63.79
2022-09-27T19:54:02.094Z,62.91
2022-09-27T19:56:34.959Z,62.94
2022-09-27T19:59:09.162Z,63.60
2022-09-27T20:01:42.674Z,64.34
2022-09-27T20:04:15.958Z,64.57
2022-09-27T20:06:48.829Z,64.31
2022-09-27T20:09:21.824Z,64.79
2022-09-27T20:11:54.861Z,64.89
2022-09-27T20:14:28.808Z,64.94
2022-09-27T20:17:01.769Z,64.85
2022-09-27T20:19:35.119Z,65.05
2022-09-27T20:22:08.004Z,64.93
2022-09-27T20:24:40.947Z,65.08
2022-09-27T20:27:13.994Z,65.15
2022-09-27T20:29:48.762Z,64.60
2022-09-27T20:32:27.754Z,64.97
2022-09-27T20:35:00.965Z,65.30
2022-09-27T20:37:33.662Z,65.03
2022-09-27T20:40:07.631Z,65.35
2022-09-27T20:42:40.314Z,65.17
2022-09-27T20:45:14.286Z,65.56
2022-09-27T20:47:47.318Z,65.26
2022-09-27T20:50:20.031Z,65.19
2022-09-27T20:52:52.649Z,65.29
2022-09-27T20:55:25.316Z,65.15
2022-09-27T20:57:58.057Z,65.25
2022-09-27T21:00:32.134Z,65.14
2022-09-27T21:03:04.844Z,65.14
2022-09-27T21:05:37.467Z,65.53
2022-09-27T21:08:10.163Z,65.45
2022-09-27T21:10:42.866Z,65.15
2022-09-27T21:13:15.641Z,65.38
2022-09-27T21:15:49.872Z,65.61
2022-09-27T21:18:24.540Z,65.73
2022-09-27T21:21:01.802Z,65.20
2022-09-27T21:23:36.815Z,65.48
2022-09-27T21:26:12.630Z,65.81
2022-09-27T21:28:47.119Z,65.36
2022-09-27T21:31:23.282Z,65.44
2022-09-27T21:33:59.006Z,65.68
2022-09-27T21:36:34.375Z,65.36
2022-09-27T21:39:09.187Z,65.90
2022-09-27T21:41:42.134Z,65.84
2022-09-27T21:44:15.037Z,66.22
2022-09-27T21:46:50.380Z,66.09
2022-09-27T21:49:24.154Z,66.05
2022-09-27T21:51:56.848Z,66.16
2022-09-27T21:54:29.646Z,66.11
2022-09-27T21:57:02.755Z,66.37
2022-09-27T21:59:35.258Z,66.57
2022-09-27T22:02:09.410Z,66.49
2022-09-27T22:04:42.497Z,65.95
2022-09-27T22:07:14.990Z,65.69
2022-09-27T22:09:47.703Z,66.19
2022-09-27T22:12:20.370Z,65.68
2022-09-27T22:14:53.033Z,65.59
2022-09-27T22:17:27.152Z,66.00
2022-09-27T22:19:59.878Z,66.24
2022-09-27T22:22:32.531Z,66.43
2022-09-27T22:25:05.737Z,66.59
2022-09-27T22:27:38.489Z,66.49
2022-09-27T22:30:12.213Z,66.51
2022-09-27T22:32:47.614Z,66.99
2022-09-27T22:35:20.518Z,66.00
2022-09-27T22:37:53.548Z,66.74
2022-09-27T22:40:26.295Z,66.64
2022-09-27T22:42:59.390Z,66.52
2022-09-27T22:45:32.080Z,67.01
2022-09-27T22:48:06.201Z,67.00
2022-09-27T22:50:39.883Z,67.07
2022-09-27T22:53:13.509Z,67.04
2022-09-27T22:56:00.656Z,66.86
2022-09-27T22:58:37.072Z,67.04
2022-09-27T23:01:11.381Z,67.34
2022-09-27T23:03:46.410Z,67.42
2022-09-27T23:06:20.999Z,67.34
2022-09-27T23:08:53.923Z,67.39
2022-09-27T23:11:26.687Z,67.41
2022-09-27T23:13:59.424Z,67.31
2022-09-27T23:16:34.545Z,67.42
2022-09-27T23:19:09.787Z,67.56
2022-09-27T23:21:42.829Z,67.33
2022-09-27T23:24:15.439Z,67.93
2022-09-27T23:27:08.938Z,68.10
2022-09-27T23:29:41.585Z,67.75
2022-09-27T23:32:14.433Z,67.86
2022-09-27T23:34:48.412Z,67.98
2022-09-27T23:37:21.381Z,68.13
2022-09-27T23:39:53.987Z,67.93
2022-09-27T23:42:27.355Z,68.21
2022-09-27T23:45:00.518Z,68.03
2022-09-27T23:47:33.761Z,68.11
2022-09-27T23:50:10.143Z,68.00
2022-09-27T23:52:44.585Z,68.23
2022-09-27T23:55:17.472Z,68.06
2022-09-27T23:57:50.205Z,68.48
